sensor_id;sensor_type;location;lat;lon;timestamp;P1;durP1;ratioP1;P2;durP2;ratioP2
39022;SDS011;25908;51.984;5.928;2022-07-10T00:02:05;2.97;;;0.90;;
39022;SDS011;25908;51.984;5.928;2022-07-10T00:04:30;6.47;;;1.45;;
39022;SDS011;25908;51.984;5.928;2022-07-10T00:06:56;3.92;;;1.00;;
39022;SDS011;25908;51.984;5.928;2022-07-10T00:09:23;4.38;;;1.00;;
39022;SDS011;25908;51.984;5.928;2022-07-10T00:11:49;5.93;;;1.30;;
39022;SDS011;25908;51.984;5.928;2022-07-10T00:14:15;7.78;;;1.25;;
39022;SDS011;25908;51.984;5.928;2022-07-10T00:16:40;4.32;;;1.05;;
39022;SDS011;25908;51.984;5.928;2022-07-10T00:19:06;8.02;;;1.40;;
39022;SDS011;25908;51.984;5.928;2022-07-10T00:21:31;7.88;;;1.40;;
39022;SDS011;25908;51.984;5.928;2022-07-10T00:23:57;3.72;;;0.98;;
39022;SDS011;25908;51.984;5.928;2022-07-10T00:26:23;7.57;;;1.20;;
39022;SDS011;25908;51.984;5.928;2022-07-10T00:28:48;7.05;;;1.20;;
39022;SDS011;25908;51.984;5.928;2022-07-10T00:31:14;7.30;;;1.15;;
39022;SDS011;25908;51.984;5.928;2022-07-10T00:33:39;5.82;;;1.00;;
39022;SDS011;25908;51.984;5.928;2022-07-10T00:36:05;5.85;;;1.70;;
39022;SDS011;25908;51.984;5.928;2022-07-10T00:38:31;8.20;;;1.38;;
39022;SDS011;25908;51.984;5.928;2022-07-10T00:40:57;5.05;;;1.13;;
39022;SDS011;25908;51.984;5.928;2022-07-10T00:43:23;6.10;;;1.25;;
39022;SDS011;25908;51.984;5.928;2022-07-10T00:45:48;4.85;;;1.40;;
39022;SDS011;25908;51.984;5.928;2022-07-10T00:48:14;6.25;;;1.25;;
39022;SDS011;25908;51.984;5.928;2022-07-10T00:50:40;5.03;;;1.10;;
39022;SDS011;25908;51.984;5.928;2022-07-10T00:53:09;5.15;;;1.40;;
39022;SDS011;25908;51.984;5.928;2022-07-10T00:55:35;7.10;;;1.13;;
39022;SDS011;25908;51.984;5.928;2022-07-10T00:58:01;5.93;;;1.30;;
39022;SDS011;25908;51.984;5.928;2022-07-10T01:00:27;6.20;;;1.20;;
39022;SDS011;25908;51.984;5.928;2022-07-10T01:02:53;7.50;;;1.63;;
39022;SDS011;25908;51.984;5.928;2022-07-10T01:05:19;3.97;;;1.30;;
39022;SDS011;25908;51.984;5.928;2022-07-10T01:07:44;6.65;;;1.25;;
39022;SDS011;25908;51.984;5.928;2022-07-10T01:10:10;4.95;;;1.25;;
39022;SDS011;25908;51.984;5.928;2022-07-10T01:12:35;5.13;;;1.20;;
39022;SDS011;25908;51.984;5.928;2022-07-10T01:15:02;4.60;;;1.20;;
39022;SDS011;25908;51.984;5.928;2022-07-10T01:17:28;3.30;;;1.10;;
39022;SDS011;25908;51.984;5.928;2022-07-10T01:19:55;5.50;;;1.17;;
39022;SDS011;25908;51.984;5.928;2022-07-10T01:22:21;6.25;;;1.00;;
39022;SDS011;25908;51.984;5.928;2022-07-10T01:24:46;4.95;;;1.25;;
39022;SDS011;25908;51.984;5.928;2022-07-10T01:27:12;5.63;;;1.20;;
39022;SDS011;25908;51.984;5.928;2022-07-10T01:29:37;7.25;;;1.30;;
39022;SDS011;25908;51.984;5.928;2022-07-10T01:32:04;5.97;;;1.35;;
39022;SDS011;25908;51.984;5.928;2022-07-10T01:34:30;6.22;;;1.27;;
39022;SDS011;25908;51.984;5.928;2022-07-10T01:36:55;7.63;;;1.48;;
39022;SDS011;25908;51.984;5.928;2022-07-10T01:39:21;6.32;;;1.27;;
39022;SDS011;25908;51.984;5.928;2022-07-10T01:41:46;4.90;;;1.10;;
39022;SDS011;25908;51.984;5.928;2022-07-10T01:44:12;6.38;;;1.23;;
39022;SDS011;25908;51.984;5.928;2022-07-10T01:46:44;4.90;;;1.05;;
39022;SDS011;25908;51.984;5.928;2022-07-10T01:49:10;7.07;;;1.95;;
39022;SDS011;25908;51.984;5.928;2022-07-10T01:51:36;7.00;;;1.48;;
39022;SDS011;25908;51.984;5.928;2022-07-10T01:54:02;3.17;;;1.00;;
39022;SDS011;25908;51.984;5.928;2022-07-10T01:56:27;4.43;;;0.88;;
39022;SDS011;25908;51.984;5.928;2022-07-10T01:58:53;5.60;;;1.08;;
39022;SDS011;25908;51.984;5.928;2022-07-10T02:01:18;4.15;;;1.10;;
39022;SDS011;25908;51.984;5.928;2022-07-10T02:03:44;6.90;;;1.90;;
39022;SDS011;25908;51.984;5.928;2022-07-10T02:06:28;4.95;;;1.10;;
39022;SDS011;25908;51.984;5.928;2022-07-10T02:08:54;4.93;;;2.35;;
39022;SDS011;25908;51.984;5.928;2022-07-10T02:11:19;5.88;;;1.45;;
39022;SDS011;25908;51.984;5.928;2022-07-10T02:13:45;4.72;;;1.05;;
39022;SDS011;25908;51.984;5.928;2022-07-10T02:16:11;6.07;;;1.38;;
39022;SDS011;25908;51.984;5.928;2022-07-10T02:18:36;6.63;;;1.23;;
39022;SDS011;25908;51.984;5.928;2022-07-10T02:21:03;6.22;;;1.15;;
39022;SDS011;25908;51.984;5.928;2022-07-10T02:23:29;3.75;;;1.08;;
39022;SDS011;25908;51.984;5.928;2022-07-10T02:25:55;9.68;;;1.20;;
39022;SDS011;25908;51.984;5.928;2022-07-10T02:28:20;2.72;;;0.85;;
39022;SDS011;25908;51.984;5.928;2022-07-10T02:30:46;3.28;;;1.00;;
39022;SDS011;25908;51.984;5.928;2022-07-10T02:33:11;3.00;;;1.10;;
39022;SDS011;25908;51.984;5.928;2022-07-10T02:35:37;6.68;;;1.33;;
39022;SDS011;25908;51.984;5.928;2022-07-10T02:38:02;3.92;;;1.00;;
39022;SDS011;25908;51.984;5.928;2022-07-10T02:40:28;4.70;;;1.00;;
39022;SDS011;25908;51.984;5.928;2022-07-10T02:42:53;3.85;;;1.05;;
39022;SDS011;25908;51.984;5.928;2022-07-10T02:45:19;4.95;;;1.10;;
39022;SDS011;25908;51.984;5.928;2022-07-10T02:47:44;5.40;;;1.25;;
39022;SDS011;25908;51.984;5.928;2022-07-10T02:50:10;5.78;;;1.25;;
39022;SDS011;25908;51.984;5.928;2022-07-10T02:52:35;5.68;;;1.70;;
39022;SDS011;25908;51.984;5.928;2022-07-10T02:55:01;5.63;;;1.50;;
39022;SDS011;25908;51.984;5.928;2022-07-10T02:57:26;5.50;;;1.40;;
39022;SDS011;25908;51.984;5.928;2022-07-10T02:59:53;9.73;;;2.13;;
39022;SDS011;25908;51.984;5.928;2022-07-10T03:02:19;6.03;;;1.42;;
39022;SDS011;25908;51.984;5.928;2022-07-10T03:04:44;4.80;;;1.27;;
39022;SDS011;25908;51.984;5.928;2022-07-10T03:07:10;5.25;;;1.48;;
39022;SDS011;25908;51.984;5.928;2022-07-10T03:09:35;6.03;;;1.52;;
39022;SDS011;25908;51.984;5.928;2022-07-10T03:12:01;6.15;;;1.20;;
39022;SDS011;25908;51.984;5.928;2022-07-10T03:14:26;8.05;;;1.58;;
39022;SDS011;25908;51.984;5.928;2022-07-10T03:16:52;4.18;;;1.38;;
39022;SDS011;25908;51.984;5.928;2022-07-10T03:19:17;6.63;;;1.50;;
39022;SDS011;25908;51.984;5.928;2022-07-10T03:21:43;6.60;;;1.55;;
39022;SDS011;25908;51.984;5.928;2022-07-10T03:24:09;7.55;;;1.98;;
39022;SDS011;25908;51.984;5.928;2022-07-10T03:26:35;4.72;;;1.10;;
39022;SDS011;25908;51.984;5.928;2022-07-10T03:29:00;5.50;;;1.85;;
39022;SDS011;25908;51.984;5.928;2022-07-10T03:31:26;6.50;;;1.10;;
39022;SDS011;25908;51.984;5.928;2022-07-10T03:33:51;5.50;;;1.00;;
39022;SDS011;25908;51.984;5.928;2022-07-10T03:36:17;8.43;;;2.10;;
39022;SDS011;25908;51.984;5.928;2022-07-10T03:38:43;7.13;;;1.30;;
39022;SDS011;25908;51.984;5.928;2022-07-10T03:41:10;4.40;;;1.10;;
39022;SDS011;25908;51.984;5.928;2022-07-10T03:43:36;4.13;;;0.98;;
39022;SDS011;25908;51.984;5.928;2022-07-10T03:46:01;8.73;;;1.70;;
39022;SDS011;25908;51.984;5.928;2022-07-10T03:48:27;8.55;;;1.58;;
39022;SDS011;25908;51.984;5.928;2022-07-10T03:50:52;6.80;;;1.70;;
39022;SDS011;25908;51.984;5.928;2022-07-10T03:53:18;6.53;;;1.58;;
39022;SDS011;25908;51.984;5.928;2022-07-10T03:55:45;6.03;;;1.55;;
39022;SDS011;25908;51.984;5.928;2022-07-10T03:58:11;6.00;;;1.77;;
39022;SDS011;25908;51.984;5.928;2022-07-10T04:00:36;7.13;;;1.58;;
39022;SDS011;25908;51.984;5.928;2022-07-10T04:03:04;5.20;;;1.40;;
39022;SDS011;25908;51.984;5.928;2022-07-10T04:05:30;4.32;;;1.13;;
39022;SDS011;25908;51.984;5.928;2022-07-10T04:07:56;7.22;;;1.40;;
39022;SDS011;25908;51.984;5.928;2022-07-10T04:10:23;4.75;;;1.13;;
39022;SDS011;25908;51.984;5.928;2022-07-10T04:12:52;6.93;;;1.10;;
39022;SDS011;25908;51.984;5.928;2022-07-10T04:15:18;5.28;;;1.02;;
39022;SDS011;25908;51.984;5.928;2022-07-10T04:17:45;6.95;;;1.85;;
39022;SDS011;25908;51.984;5.928;2022-07-10T04:20:10;5.43;;;1.38;;
39022;SDS011;25908;51.984;5.928;2022-07-10T04:22:36;5.40;;;1.10;;
39022;SDS011;25908;51.984;5.928;2022-07-10T04:25:02;6.30;;;1.50;;
39022;SDS011;25908;51.984;5.928;2022-07-10T04:27:28;6.63;;;1.33;;
39022;SDS011;25908;51.984;5.928;2022-07-10T04:29:54;5.18;;;1.10;;
39022;SDS011;25908;51.984;5.928;2022-07-10T04:32:20;6.90;;;1.42;;
39022;SDS011;25908;51.984;5.928;2022-07-10T04:34:46;5.50;;;1.27;;
39022;SDS011;25908;51.984;5.928;2022-07-10T04:37:11;6.13;;;1.30;;
39022;SDS011;25908;51.984;5.928;2022-07-10T04:39:37;6.10;;;1.38;;
39022;SDS011;25908;51.984;5.928;2022-07-10T04:42:04;7.65;;;1.75;;
39022;SDS011;25908;51.984;5.928;2022-07-10T04:44:30;8.60;;;1.55;;
39022;SDS011;25908;51.984;5.928;2022-07-10T04:46:56;6.10;;;1.30;;
39022;SDS011;25908;51.984;5.928;2022-07-10T04:49:21;5.28;;;1.20;;
39022;SDS011;25908;51.984;5.928;2022-07-10T04:51:47;6.20;;;1.45;;
39022;SDS011;25908;51.984;5.928;2022-07-10T04:54:14;6.93;;;1.45;;
39022;SDS011;25908;51.984;5.928;2022-07-10T04:56:39;8.50;;;1.85;;
39022;SDS011;25908;51.984;5.928;2022-07-10T04:59:05;8.40;;;1.45;;
39022;SDS011;25908;51.984;5.928;2022-07-10T05:01:31;6.10;;;1.35;;
39022;SDS011;25908;51.984;5.928;2022-07-10T05:03:56;9.10;;;1.50;;
39022;SDS011;25908;51.984;5.928;2022-07-10T05:06:22;5.80;;;1.10;;
39022;SDS011;25908;51.984;5.928;2022-07-10T05:08:49;4.95;;;1.50;;
39022;SDS011;25908;51.984;5.928;2022-07-10T05:11:14;5.10;;;1.10;;
39022;SDS011;25908;51.984;5.928;2022-07-10T05:13:40;8.70;;;1.83;;
39022;SDS011;25908;51.984;5.928;2022-07-10T05:16:10;5.38;;;1.58;;
39022;SDS011;25908;51.984;5.928;2022-07-10T05:18:35;9.57;;;1.30;;
39022;SDS011;25908;51.984;5.928;2022-07-10T05:21:01;3.75;;;0.98;;
39022;SDS011;25908;51.984;5.928;2022-07-10T05:23:27;4.40;;;1.20;;
39022;SDS011;25908;51.984;5.928;2022-07-10T05:25:52;8.77;;;1.30;;
39022;SDS011;25908;51.984;5.928;2022-07-10T05:28:18;4.30;;;1.13;;
39022;SDS011;25908;51.984;5.928;2022-07-10T05:30:43;4.80;;;1.20;;
39022;SDS011;25908;51.984;5.928;2022-07-10T05:33:09;5.10;;;1.25;;
39022;SDS011;25908;51.984;5.928;2022-07-10T05:35:34;8.25;;;1.60;;
39022;SDS011;25908;51.984;5.928;2022-07-10T05:38:00;5.97;;;1.40;;
39022;SDS011;25908;51.984;5.928;2022-07-10T05:40:26;7.93;;;1.52;;
39022;SDS011;25908;51.984;5.928;2022-07-10T05:42:52;7.40;;;1.50;;
39022;SDS011;25908;51.984;5.928;2022-07-10T05:45:17;8.13;;;1.42;;
39022;SDS011;25908;51.984;5.928;2022-07-10T05:47:43;4.47;;;1.17;;
39022;SDS011;25908;51.984;5.928;2022-07-10T05:50:12;4.47;;;1.13;;
39022;SDS011;25908;51.984;5.928;2022-07-10T05:52:38;7.20;;;1.20;;
39022;SDS011;25908;51.984;5.928;2022-07-10T05:55:03;8.10;;;1.23;;
39022;SDS011;25908;51.984;5.928;2022-07-10T05:57:30;5.20;;;1.30;;
39022;SDS011;25908;51.984;5.928;2022-07-10T05:59:56;5.68;;;1.50;;
39022;SDS011;25908;51.984;5.928;2022-07-10T06:02:22;7.47;;;1.38;;
39022;SDS011;25908;51.984;5.928;2022-07-10T06:04:47;7.88;;;1.52;;
39022;SDS011;25908;51.984;5.928;2022-07-10T06:07:14;4.50;;;1.23;;
39022;SDS011;25908;51.984;5.928;2022-07-10T06:09:39;6.70;;;1.38;;
39022;SDS011;25908;51.984;5.928;2022-07-10T06:12:05;9.45;;;1.98;;
39022;SDS011;25908;51.984;5.928;2022-07-10T06:14:31;8.32;;;1.48;;
39022;SDS011;25908;51.984;5.928;2022-07-10T06:16:56;5.28;;;1.45;;
39022;SDS011;25908;51.984;5.928;2022-07-10T06:19:22;7.32;;;2.22;;
39022;SDS011;25908;51.984;5.928;2022-07-10T06:21:47;8.10;;;2.00;;
39022;SDS011;25908;51.984;5.928;2022-07-10T06:24:13;6.85;;;1.40;;
39022;SDS011;25908;51.984;5.928;2022-07-10T06:26:38;7.47;;;2.25;;
39022;SDS011;25908;51.984;5.928;2022-07-10T06:29:04;7.03;;;1.30;;
39022;SDS011;25908;51.984;5.928;2022-07-10T06:31:29;8.77;;;1.48;;
39022;SDS011;25908;51.984;5.928;2022-07-10T06:33:55;6.93;;;1.60;;
39022;SDS011;25908;51.984;5.928;2022-07-10T06:36:21;7.00;;;1.65;;
39022;SDS011;25908;51.984;5.928;2022-07-10T06:38:46;9.90;;;1.30;;
39022;SDS011;25908;51.984;5.928;2022-07-10T06:41:12;6.50;;;1.40;;
39022;SDS011;25908;51.984;5.928;2022-07-10T06:43:37;7.13;;;1.42;;
39022;SDS011;25908;51.984;5.928;2022-07-10T06:46:03;8.18;;;2.13;;
39022;SDS011;25908;51.984;5.928;2022-07-10T06:48:29;7.85;;;2.15;;
39022;SDS011;25908;51.984;5.928;2022-07-10T06:50:54;5.50;;;1.60;;
39022;SDS011;25908;51.984;5.928;2022-07-10T06:53:20;7.60;;;1.60;;
39022;SDS011;25908;51.984;5.928;2022-07-10T06:55:50;6.72;;;1.77;;
39022;SDS011;25908;51.984;5.928;2022-07-10T06:58:16;7.93;;;2.15;;
39022;SDS011;25908;51.984;5.928;2022-07-10T07:00:42;7.85;;;2.30;;
39022;SDS011;25908;51.984;5.928;2022-07-10T07:03:07;7.05;;;1.90;;
39022;SDS011;25908;51.984;5.928;2022-07-10T07:05:33;6.47;;;1.58;;
39022;SDS011;25908;51.984;5.928;2022-07-10T07:07:59;7.80;;;1.52;;
39022;SDS011;25908;51.984;5.928;2022-07-10T07:10:24;10.00;;;1.92;;
39022;SDS011;25908;51.984;5.928;2022-07-10T07:12:50;6.65;;;1.90;;
39022;SDS011;25908;51.984;5.928;2022-07-10T07:15:15;5.93;;;1.77;;
39022;SDS011;25908;51.984;5.928;2022-07-10T07:17:42;6.13;;;1.70;;
39022;SDS011;25908;51.984;5.928;2022-07-10T07:20:27;9.40;;;1.92;;
39022;SDS011;25908;51.984;5.928;2022-07-10T07:23:12;6.68;;;2.00;;
39022;SDS011;25908;51.984;5.928;2022-07-10T07:25:38;6.07;;;1.70;;
39022;SDS011;25908;51.984;5.928;2022-07-10T07:28:12;7.18;;;1.90;;
39022;SDS011;25908;51.984;5.928;2022-07-10T07:30:41;8.05;;;1.70;;
39022;SDS011;25908;51.984;5.928;2022-07-10T07:33:07;8.60;;;2.20;;
39022;SDS011;25908;51.984;5.928;2022-07-10T07:35:33;8.23;;;1.58;;
39022;SDS011;25908;51.984;5.928;2022-07-10T07:38:00;7.25;;;1.85;;
39022;SDS011;25908;51.984;5.928;2022-07-10T07:40:26;5.45;;;1.98;;
39022;SDS011;25908;51.984;5.928;2022-07-10T07:42:52;5.68;;;2.03;;
39022;SDS011;25908;51.984;5.928;2022-07-10T07:45:19;9.00;;;2.10;;
39022;SDS011;25908;51.984;5.928;2022-07-10T07:47:52;6.55;;;2.10;;
39022;SDS011;25908;51.984;5.928;2022-07-10T07:50:24;4.85;;;1.60;;
39022;SDS011;25908;51.984;5.928;2022-07-10T07:52:51;9.10;;;1.70;;
39022;SDS011;25908;51.984;5.928;2022-07-10T07:55:18;8.73;;;1.95;;
39022;SDS011;25908;51.984;5.928;2022-07-10T07:57:44;7.53;;;2.13;;
39022;SDS011;25908;51.984;5.928;2022-07-10T08:00:11;8.05;;;2.33;;
39022;SDS011;25908;51.984;5.928;2022-07-10T08:02:38;7.60;;;1.75;;
39022;SDS011;25908;51.984;5.928;2022-07-10T08:05:04;8.38;;;2.15;;
39022;SDS011;25908;51.984;5.928;2022-07-10T08:07:34;7.85;;;2.38;;
39022;SDS011;25908;51.984;5.928;2022-07-10T08:09:59;7.68;;;2.17;;
39022;SDS011;25908;51.984;5.928;2022-07-10T08:12:25;13.13;;;2.65;;
39022;SDS011;25908;51.984;5.928;2022-07-10T08:14:51;8.63;;;2.15;;
39022;SDS011;25908;51.984;5.928;2022-07-10T08:17:16;7.63;;;2.10;;
39022;SDS011;25908;51.984;5.928;2022-07-10T08:19:42;10.77;;;2.28;;
39022;SDS011;25908;51.984;5.928;2022-07-10T08:22:07;6.30;;;1.95;;
39022;SDS011;25908;51.984;5.928;2022-07-10T08:24:33;5.45;;;2.10;;
39022;SDS011;25908;51.984;5.928;2022-07-10T08:26:58;6.95;;;1.88;;
39022;SDS011;25908;51.984;5.928;2022-07-10T08:29:24;9.85;;;1.80;;
39022;SDS011;25908;51.984;5.928;2022-07-10T08:31:49;9.00;;;2.83;;
39022;SDS011;25908;51.984;5.928;2022-07-10T08:34:15;6.75;;;2.03;;
39022;SDS011;25908;51.984;5.928;2022-07-10T08:36:40;8.48;;;2.40;;
39022;SDS011;25908;51.984;5.928;2022-07-10T08:39:06;5.70;;;1.98;;
39022;SDS011;25908;51.984;5.928;2022-07-10T08:41:31;4.97;;;1.65;;
39022;SDS011;25908;51.984;5.928;2022-07-10T08:43:59;7.18;;;1.63;;
39022;SDS011;25908;51.984;5.928;2022-07-10T08:46:25;8.30;;;2.03;;
39022;SDS011;25908;51.984;5.928;2022-07-10T08:48:53;6.88;;;2.10;;
39022;SDS011;25908;51.984;5.928;2022-07-10T08:52:02;10.77;;;3.13;;
39022;SDS011;25908;51.984;5.928;2022-07-10T08:54:08;8.05;;;1.88;;
39022;SDS011;25908;51.984;5.928;2022-07-10T08:56:34;8.57;;;2.03;;
39022;SDS011;25908;51.984;5.928;2022-07-10T08:59:02;7.15;;;1.90;;
39022;SDS011;25908;51.984;5.928;2022-07-10T09:01:31;5.68;;;1.77;;
39022;SDS011;25908;51.984;5.928;2022-07-10T09:03:57;7.43;;;1.88;;
39022;SDS011;25908;51.984;5.928;2022-07-10T09:06:23;7.88;;;1.85;;
39022;SDS011;25908;51.984;5.928;2022-07-10T09:11:25;14.20;;;2.03;;
39022;SDS011;25908;51.984;5.928;2022-07-10T09:13:54;6.50;;;1.90;;
39022;SDS011;25908;51.984;5.928;2022-07-10T09:16:32;11.27;;;1.65;;
39022;SDS011;25908;51.984;5.928;2022-07-10T09:19:14;8.05;;;2.13;;
39022;SDS011;25908;51.984;5.928;2022-07-10T09:21:54;7.75;;;1.50;;
39022;SDS011;25908;51.984;5.928;2022-07-10T09:24:39;3.28;;;1.40;;
39022;SDS011;25908;51.984;5.928;2022-07-10T09:27:06;7.68;;;2.00;;
39022;SDS011;25908;51.984;5.928;2022-07-10T09:29:32;4.72;;;1.77;;
39022;SDS011;25908;51.984;5.928;2022-07-10T09:32:10;10.85;;;1.63;;
39022;SDS011;25908;51.984;5.928;2022-07-10T09:34:44;5.10;;;1.17;;
39022;SDS011;25908;51.984;5.928;2022-07-10T09:37:17;4.63;;;1.05;;
39022;SDS011;25908;51.984;5.928;2022-07-10T09:40:26;5.97;;;1.15;;
39022;SDS011;25908;51.984;5.928;2022-07-10T09:42:33;4.38;;;1.55;;
39022;SDS011;25908;51.984;5.928;2022-07-10T09:47:38;6.95;;;1.30;;
39022;SDS011;25908;51.984;5.928;2022-07-10T09:50:04;5.57;;;1.95;;
39022;SDS011;25908;51.984;5.928;2022-07-10T09:52:51;7.78;;;1.23;;
39022;SDS011;25908;51.984;5.928;2022-07-10T09:55:22;3.95;;;1.10;;
39022;SDS011;25908;51.984;5.928;2022-07-10T09:57:53;5.78;;;1.30;;
39022;SDS011;25908;51.984;5.928;2022-07-10T10:00:22;7.10;;;1.40;;
39022;SDS011;25908;51.984;5.928;2022-07-10T10:05:20;4.63;;;1.92;;
39022;SDS011;25908;51.984;5.928;2022-07-10T10:07:50;5.38;;;1.23;;
39022;SDS011;25908;51.984;5.928;2022-07-10T10:10:16;2.42;;;1.00;;
39022;SDS011;25908;51.984;5.928;2022-07-10T10:12:44;6.78;;;1.30;;
39022;SDS011;25908;51.984;5.928;2022-07-10T10:15:16;3.53;;;1.30;;
39022;SDS011;25908;51.984;5.928;2022-07-10T10:17:42;2.75;;;1.00;;
39022;SDS011;25908;51.984;5.928;2022-07-10T10:20:10;4.10;;;1.10;;
39022;SDS011;25908;51.984;5.928;2022-07-10T10:22:55;5.50;;;1.13;;
39022;SDS011;25908;51.984;5.928;2022-07-10T10:25:24;4.70;;;1.15;;
39022;SDS011;25908;51.984;5.928;2022-07-10T10:27:51;4.25;;;1.05;;
39022;SDS011;25908;51.984;5.928;2022-07-10T10:30:17;2.13;;;0.70;;
39022;SDS011;25908;51.984;5.928;2022-07-10T10:32:43;4.70;;;1.05;;
39022;SDS011;25908;51.984;5.928;2022-07-10T10:35:08;5.75;;;1.10;;
39022;SDS011;25908;51.984;5.928;2022-07-10T10:40:09;5.32;;;1.25;;
39022;SDS011;25908;51.984;5.928;2022-07-10T10:42:37;2.38;;;0.85;;
39022;SDS011;25908;51.984;5.928;2022-07-10T10:45:22;4.88;;;0.95;;
39022;SDS011;25908;51.984;5.928;2022-07-10T10:58:42;4.10;;;0.90;;
39022;SDS011;25908;51.984;5.928;2022-07-10T11:06:38;3.60;;;1.00;;
39022;SDS011;25908;51.984;5.928;2022-07-10T11:09:23;4.53;;;1.08;;
39022;SDS011;25908;51.984;5.928;2022-07-10T11:14:36;6.05;;;1.10;;
39022;SDS011;25908;51.984;5.928;2022-07-10T11:17:09;2.97;;;0.88;;
39022;SDS011;25908;51.984;5.928;2022-07-10T11:19:34;3.53;;;0.80;;
39022;SDS011;25908;51.984;5.928;2022-07-10T11:22:05;3.30;;;0.90;;
39022;SDS011;25908;51.984;5.928;2022-07-10T11:24:44;5.60;;;1.25;;
39022;SDS011;25908;51.984;5.928;2022-07-10T11:27:28;6.00;;;1.45;;
39022;SDS011;25908;51.984;5.928;2022-07-10T11:30:01;2.70;;;0.93;;
39022;SDS011;25908;51.984;5.928;2022-07-10T11:32:27;2.10;;;0.82;;
39022;SDS011;25908;51.984;5.928;2022-07-10T11:34:53;1.88;;;0.70;;
39022;SDS011;25908;51.984;5.928;2022-07-10T11:37:19;3.65;;;0.90;;
39022;SDS011;25908;51.984;5.928;2022-07-10T11:39:45;3.75;;;0.85;;
39022;SDS011;25908;51.984;5.928;2022-07-10T11:42:10;2.83;;;0.75;;
39022;SDS011;25908;51.984;5.928;2022-07-10T11:44:36;3.88;;;1.05;;
39022;SDS011;25908;51.984;5.928;2022-07-10T11:47:02;4.35;;;0.98;;
39022;SDS011;25908;51.984;5.928;2022-07-10T11:49:29;3.78;;;1.10;;
39022;SDS011;25908;51.984;5.928;2022-07-10T11:52:00;4.30;;;1.02;;
39022;SDS011;25908;51.984;5.928;2022-07-10T11:54:28;3.17;;;1.00;;
39022;SDS011;25908;51.984;5.928;2022-07-10T11:56:53;2.70;;;0.80;;
39022;SDS011;25908;51.984;5.928;2022-07-10T11:59:26;5.47;;;1.52;;
39022;SDS011;25908;51.984;5.928;2022-07-10T12:01:53;5.38;;;1.25;;
39022;SDS011;25908;51.984;5.928;2022-07-10T12:04:20;4.93;;;1.25;;
39022;SDS011;25908;51.984;5.928;2022-07-10T12:06:49;1.95;;;0.75;;
39022;SDS011;25908;51.984;5.928;2022-07-10T12:09:17;3.08;;;1.00;;
39022;SDS011;25908;51.984;5.928;2022-07-10T12:11:44;3.67;;;1.00;;
39022;SDS011;25908;51.984;5.928;2022-07-10T12:14:29;5.20;;;1.02;;
39022;SDS011;25908;51.984;5.928;2022-07-10T12:16:56;7.28;;;0.90;;
39022;SDS011;25908;51.984;5.928;2022-07-10T12:19:23;4.75;;;0.80;;
39022;SDS011;25908;51.984;5.928;2022-07-10T12:21:55;2.10;;;0.90;;
39022;SDS011;25908;51.984;5.928;2022-07-10T12:24:21;3.10;;;0.80;;
39022;SDS011;25908;51.984;5.928;2022-07-10T12:26:49;4.20;;;1.00;;
39022;SDS011;25908;51.984;5.928;2022-07-10T12:31:46;3.80;;;1.30;;
39022;SDS011;25908;51.984;5.928;2022-07-10T12:34:13;2.97;;;0.88;;
39022;SDS011;25908;51.984;5.928;2022-07-10T12:36:45;2.30;;;0.70;;
39022;SDS011;25908;51.984;5.928;2022-07-10T12:39:19;4.07;;;1.08;;
39022;SDS011;25908;51.984;5.928;2022-07-10T12:41:52;7.85;;;1.98;;
39022;SDS011;25908;51.984;5.928;2022-07-10T12:44:40;4.80;;;1.00;;
39022;SDS011;25908;51.984;5.928;2022-07-10T12:47:11;2.22;;;0.70;;
39022;SDS011;25908;51.984;5.928;2022-07-10T12:49:50;2.00;;;0.70;;
39022;SDS011;25908;51.984;5.928;2022-07-10T12:57:53;2.25;;;0.63;;
39022;SDS011;25908;51.984;5.928;2022-07-10T13:00:20;6.07;;;1.00;;
39022;SDS011;25908;51.984;5.928;2022-07-10T13:02:48;4.97;;;1.08;;
39022;SDS011;25908;51.984;5.928;2022-07-10T13:08:05;2.28;;;0.77;;
39022;SDS011;25908;51.984;5.928;2022-07-10T13:10:37;1.90;;;0.60;;
39022;SDS011;25908;51.984;5.928;2022-07-10T13:13:07;2.35;;;0.80;;
39022;SDS011;25908;51.984;5.928;2022-07-10T13:15:33;3.20;;;0.80;;
39022;SDS011;25908;51.984;5.928;2022-07-10T13:18:04;1.67;;;0.70;;
39022;SDS011;25908;51.984;5.928;2022-07-10T13:20:30;1.83;;;0.80;;
39022;SDS011;25908;51.984;5.928;2022-07-10T13:22:56;2.90;;;0.80;;
39022;SDS011;25908;51.984;5.928;2022-07-10T13:25:21;2.83;;;1.00;;
39022;SDS011;25908;51.984;5.928;2022-07-10T13:27:47;2.80;;;1.00;;
39022;SDS011;25908;51.984;5.928;2022-07-10T13:30:13;2.75;;;0.80;;
39022;SDS011;25908;51.984;5.928;2022-07-10T13:32:38;2.75;;;1.15;;
39022;SDS011;25908;51.984;5.928;2022-07-10T13:35:04;1.85;;;0.82;;
39022;SDS011;25908;51.984;5.928;2022-07-10T13:37:30;2.58;;;0.70;;
39022;SDS011;25908;51.984;5.928;2022-07-10T13:39:56;4.28;;;1.10;;
39022;SDS011;25908;51.984;5.928;2022-07-10T13:42:22;1.90;;;0.90;;
39022;SDS011;25908;51.984;5.928;2022-07-10T13:44:47;4.28;;;1.20;;
39022;SDS011;25908;51.984;5.928;2022-07-10T13:47:13;4.32;;;1.95;;
39022;SDS011;25908;51.984;5.928;2022-07-10T13:49:39;3.53;;;1.58;;
39022;SDS011;25908;51.984;5.928;2022-07-10T13:52:04;5.55;;;2.70;;
39022;SDS011;25908;51.984;5.928;2022-07-10T13:54:30;7.22;;;1.25;;
39022;SDS011;25908;51.984;5.928;2022-07-10T13:56:55;5.57;;;1.48;;
39022;SDS011;25908;51.984;5.928;2022-07-10T13:59:21;4.05;;;1.38;;
39022;SDS011;25908;51.984;5.928;2022-07-10T14:01:47;2.15;;;0.80;;
39022;SDS011;25908;51.984;5.928;2022-07-10T14:04:13;2.78;;;0.70;;
39022;SDS011;25908;51.984;5.928;2022-07-10T14:06:38;2.55;;;0.98;;
39022;SDS011;25908;51.984;5.928;2022-07-10T14:09:04;3.42;;;1.00;;
39022;SDS011;25908;51.984;5.928;2022-07-10T14:11:29;5.00;;;0.88;;
39022;SDS011;25908;51.984;5.928;2022-07-10T14:13:56;2.55;;;0.85;;
39022;SDS011;25908;51.984;5.928;2022-07-10T14:16:22;2.80;;;0.98;;
39022;SDS011;25908;51.984;5.928;2022-07-10T14:18:47;5.25;;;0.90;;
39022;SDS011;25908;51.984;5.928;2022-07-10T14:21:13;2.95;;;0.98;;
39022;SDS011;25908;51.984;5.928;2022-07-10T14:23:40;5.05;;;1.38;;
39022;SDS011;25908;51.984;5.928;2022-07-10T14:26:09;3.22;;;1.10;;
39022;SDS011;25908;51.984;5.928;2022-07-10T14:28:36;2.90;;;1.00;;
39022;SDS011;25908;51.984;5.928;2022-07-10T14:31:02;4.25;;;1.00;;
39022;SDS011;25908;51.984;5.928;2022-07-10T14:33:32;3.92;;;0.90;;
39022;SDS011;25908;51.984;5.928;2022-07-10T14:35:58;3.20;;;1.27;;
39022;SDS011;25908;51.984;5.928;2022-07-10T14:38:24;3.22;;;1.30;;
39022;SDS011;25908;51.984;5.928;2022-07-10T14:40:50;3.40;;;1.33;;
39022;SDS011;25908;51.984;5.928;2022-07-10T14:43:18;4.72;;;0.98;;
39022;SDS011;25908;51.984;5.928;2022-07-10T14:45:44;5.13;;;1.10;;
39022;SDS011;25908;51.984;5.928;2022-07-10T14:48:10;4.15;;;1.08;;
39022;SDS011;25908;51.984;5.928;2022-07-10T14:50:36;4.15;;;0.90;;
39022;SDS011;25908;51.984;5.928;2022-07-10T14:53:01;2.25;;;0.80;;
39022;SDS011;25908;51.984;5.928;2022-07-10T14:55:27;4.47;;;1.00;;
39022;SDS011;25908;51.984;5.928;2022-07-10T14:57:52;3.63;;;1.70;;
39022;SDS011;25908;51.984;5.928;2022-07-10T15:00:18;11.57;;;5.68;;
39022;SDS011;25908;51.984;5.928;2022-07-10T15:02:44;10.13;;;4.50;;
39022;SDS011;25908;51.984;5.928;2022-07-10T15:05:10;4.13;;;1.20;;
39022;SDS011;25908;51.984;5.928;2022-07-10T15:07:35;3.53;;;1.02;;
39022;SDS011;25908;51.984;5.928;2022-07-10T15:10:01;3.38;;;1.23;;
39022;SDS011;25908;51.984;5.928;2022-07-10T15:12:26;4.03;;;1.30;;
39022;SDS011;25908;51.984;5.928;2022-07-10T15:14:52;3.85;;;1.05;;
39022;SDS011;25908;51.984;5.928;2022-07-10T15:17:18;4.03;;;1.00;;
39022;SDS011;25908;51.984;5.928;2022-07-10T15:19:43;2.15;;;0.90;;
39022;SDS011;25908;51.984;5.928;2022-07-10T15:22:09;2.38;;;0.90;;
39022;SDS011;25908;51.984;5.928;2022-07-10T15:24:34;3.50;;;0.98;;
39022;SDS011;25908;51.984;5.928;2022-07-10T15:27:00;2.85;;;0.82;;
39022;SDS011;25908;51.984;5.928;2022-07-10T15:29:25;2.88;;;1.15;;